Time;durP1;ratioP1;P1;durP2;ratioP2;P2;SDS_P1;SDS_P2;PMS_P1;PMS_P2;Temp;Humidity;BMP_temperature;BMP_pressure;BME280_temperature;BME280_humidity;BME280_pressure;Samples;Min_cycle;Max_cycle;Signal;HPM_P1;HPM_P2
2022/06/03 00:00:03;;;;;;;6.23;3.77;;;15.30;99.90;;;;;;5067166;28;20362;-55
2022/06/03 00:03:02;;;;;;;3.77;3.33;;;15.10;99.90;;;;;;5072142;28;20273;-56
2022/06/03 00:05:52;;;;;;;3.87;3.37;;;15.20;99.90;;;;;;5072056;28;20304;-56
2022/06/03 00:08:50;;;;;;;5.53;3.90;;;15.20;99.90;;;;;;5074493;28;20243;-56
2022/06/03 00:11:25;;;;;;;5.70;3.67;;;15.20;99.90;;;;;;5075899;28;20285;-55
2022/06/03 00:13:54;;;;;;;3.70;3.40;;;15.10;99.90;;;;;;5067164;28;20296;-56
2022/06/03 00:16:27;;;;;;;5.10;3.60;;;15.10;99.90;;;;;;5075698;28;20311;-56
2022/06/03 00:19:29;;;;;;;4.03;3.50;;;15.20;99.90;;;;;;5069767;28;20236;-55
2022/06/03 00:22:14;;;;;;;3.90;3.50;;;15.00;99.90;;;;;;5009137;28;20238;-55
2022/06/03 00:24:56;;;;;;;4.27;3.87;;;15.00;99.90;;;;;;5069494;28;20198;-55
2022/06/03 00:28:04;;;;;;;4.43;4.03;;;15.00;99.90;;;;;;5071756;28;20286;-55
2022/06/03 00:31:05;;;;;;;4.63;4.00;;;15.00;99.90;;;;;;5041893;28;20721;-54
2022/06/03 00:33:56;;;;;;;4.27;3.70;;;14.90;99.90;;;;;;5073145;28;20694;-54
2022/06/03 00:36:44;;;;;;;4.00;3.60;;;15.00;99.90;;;;;;5073379;28;20258;-54
2022/06/03 00:39:29;;;;;;;6.17;3.57;;;14.90;99.90;;;;;;5072859;28;20220;-54
2022/06/03 00:42:27;;;;;;;4.07;3.60;;;14.90;99.90;;;;;;5068305;28;20192;-54
2022/06/03 00:45:17;;;;;;;4.07;3.67;;;14.80;99.90;;;;;;5065445;28;20657;-55
2022/06/03 00:48:16;;;;;;;4.37;3.97;;;14.80;99.90;;;;;;5065485;28;20303;-55
2022/06/03 00:51:01;;;;;;;4.43;3.40;;;14.80;99.90;;;;;;5068527;28;20479;-55
2022/06/03 00:53:55;;;;;;;4.00;3.60;;;14.70;99.90;;;;;;5066649;28;20770;-56
2022/06/03 00:56:41;;;;;;;5.80;3.73;;;14.80;99.90;;;;;;5066453;28;20243;-55
2022/06/03 00:59:29;;;;;;;4.10;3.80;;;14.60;99.90;;;;;;5064370;28;20674;-55
2022/06/03 01:02:38;;;;;;;4.40;3.90;;;14.60;99.90;;;;;;5068218;28;20294;-55
2022/06/03 01:05:15;;;;;;;3.93;3.30;;;14.60;99.90;;;;;;5044402;28;20206;-55
2022/06/03 01:08:10;;;;;;;4.03;3.63;;;14.60;99.90;;;;;;5067887;28;20291;-54
2022/06/03 01:10:48;;;;;;;3.90;3.50;;;14.60;99.90;;;;;;5074524;28;20669;-55
2022/06/03 01:13:35;;;;;;;4.33;3.70;;;14.60;99.90;;;;;;5068909;28;20313;-55
2022/06/03 01:16:25;;;;;;;4.37;3.47;;;14.60;99.90;;;;;;5066895;28;20729;-55
2022/06/03 01:18:58;;;;;;;3.93;3.63;;;14.60;99.90;;;;;;5079481;28;20617;-55
2022/06/03 01:22:01;;;;;;;5.30;3.53;;;14.60;99.90;;;;;;5070790;28;20662;-56
2022/06/03 01:24:48;;;;;;;4.20;3.80;;;14.50;99.90;;;;;;5072635;28;20324;-55
2022/06/03 01:27:33;;;;;;;4.00;3.47;;;14.50;99.90;;;;;;5067851;28;20203;-55
2022/06/03 01:30:11;;;;;;;6.83;3.73;;;14.50;99.90;;;;;;5072274;28;20199;-55
2022/06/03 01:32:53;;;;;;;5.90;3.50;;;14.60;99.90;;;;;;5073783;28;20231;-54
2022/06/03 01:35:41;;;;;;;4.67;3.57;;;14.60;99.90;;;;;;5069709;28;20534;-55
2022/06/03 01:38:16;;;;;;;4.10;3.67;;;14.60;99.90;;;;;;5071723;28;20595;-56
2022/06/03 01:41:18;;;;;;;4.80;4.00;;;14.50;99.90;;;;;;5063860;28;20505;-54
2022/06/03 01:43:57;;;;;;;6.00;4.20;;;14.50;99.90;;;;;;5066590;28;20202;-55
2022/06/03 01:46:54;;;;;;;5.23;4.73;;;14.40;99.90;;;;;;5073247;28;20230;-55
2022/06/03 01:49:49;;;;;;;4.90;4.50;;;14.40;99.90;;;;;;5059679;28;20281;-55
2022/06/03 01:52:27;;;;;;;5.87;4.90;;;14.40;99.90;;;;;;5066702;28;20316;-55
2022/06/03 01:55:06;;;;;;;6.63;5.20;;;14.20;99.90;;;;;;5071384;28;20229;-55
2022/06/03 01:57:39;;;;;;;6.57;5.53;;;14.10;99.90;;;;;;5065523;28;20236;-54
2022/06/03 02:00:24;;;;;;;6.33;5.73;;;14.10;99.90;;;;;;5071948;28;20781;-55
2022/06/03 02:03:05;;;;;;;5.57;5.07;;;14.00;99.90;;;;;;5065456;28;22005;-54
2022/06/03 02:05:42;;;;;;;6.00;5.10;;;14.00;99.90;;;;;;5071406;28;20223;-55
2022/06/03 02:08:29;;;;;;;6.63;5.80;;;14.00;99.90;;;;;;5067706;28;20314;-54
2022/06/03 02:11:04;;;;;;;6.10;5.50;;;14.10;99.90;;;;;;5057424;28;20286;-55
2022/06/03 02:13:48;;;;;;;5.90;5.40;;;14.10;99.90;;;;;;5069401;28;20985;-55
2022/06/03 02:16:29;;;;;;;7.10;6.40;;;14.20;99.90;;;;;;5070768;28;21033;-57
2022/06/03 02:19:11;;;;;;;6.23;5.63;;;14.00;99.90;;;;;;5070141;28;20285;-57
2022/06/03 02:21:46;;;;;;;8.80;5.87;;;14.00;99.90;;;;;;5073095;28;20336;-55
2022/06/03 02:24:39;;;;;;;7.83;5.93;;;14.00;99.90;;;;;;5070098;28;20655;-55
2022/06/03 02:27:31;;;;;;;8.07;6.00;;;13.80;99.90;;;;;;5070684;28;20707;-55
2022/06/03 02:30:25;;;;;;;7.23;5.93;;;13.70;99.90;;;;;;5074312;28;20601;-55
2022/06/03 02:33:15;;;;;;;6.87;5.33;;;13.70;99.90;;;;;;5068321;28;20628;-55
2022/06/03 02:35:52;;;;;;;6.47;5.87;;;13.80;99.90;;;;;;5069959;28;20227;-55
2022/06/03 02:38:57;;;;;;;7.67;5.27;;;13.80;99.90;;;;;;5070715;28;20558;-55
2022/06/03 02:41:42;;;;;;;6.93;5.53;;;13.70;99.90;;;;;;5065999;28;20298;-56
2022/06/03 02:44:39;;;;;;;6.97;5.77;;;13.70;99.90;;;;;;5072828;28;20672;-55
2022/06/03 02:47:43;;;;;;;6.57;5.90;;;13.80;99.90;;;;;;5069194;28;20287;-55
2022/06/03 02:50:33;;;;;;;6.07;5.53;;;13.90;99.90;;;;;;5075615;28;20233;-56
2022/06/03 02:53:12;;;;;;;6.30;5.70;;;13.70;99.90;;;;;;5035422;28;20207;-56
2022/06/03 02:55:54;;;;;;;6.43;5.83;;;13.70;99.90;;;;;;5073754;28;20671;-56
2022/06/03 02:58:43;;;;;;;6.93;6.23;;;13.70;99.90;;;;;;5065946;28;20328;-56
2022/06/03 03:01:28;;;;;;;6.23;5.63;;;13.70;99.90;;;;;;5077510;28;20675;-55
2022/06/03 03:04:32;;;;;;;7.60;5.80;;;13.70;99.90;;;;;;5075044;28;20278;-55
2022/06/03 03:07:13;;;;;;;6.97;5.50;;;13.60;99.90;;;;;;5070661;28;20235;-55
2022/06/03 03:10:30;;;;;;;7.20;5.53;;;13.50;99.90;;;;;;5071532;28;20286;-55
2022/06/03 03:13:38;;;;;;;7.10;6.40;;;13.60;99.90;;;;;;5002359;28;20296;-55
2022/06/03 03:16:42;;;;;;;7.67;5.60;;;13.50;99.90;;;;;;5011053;28;20658;-55
2022/06/03 03:19:36;;;;;;;6.60;6.00;;;13.60;99.90;;;;;;5006207;28;20292;-54
2022/06/03 03:22:18;;;;;;;5.97;5.47;;;13.60;99.90;;;;;;5005609;28;20235;-55
2022/06/03 03:25:07;;;;;;;5.63;5.03;;;13.60;99.90;;;;;;5006809;28;20911;-54
2022/06/03 03:27:49;;;;;;;6.07;5.47;;;13.60;99.90;;;;;;5001122;28;20404;-55
2022/06/03 03:30:38;;;;;;;5.87;5.27;;;13.50;99.90;;;;;;5003691;28;20197;-55
2022/06/03 03:33:38;;;;;;;8.67;6.10;;;13.50;99.90;;;;;;4996230;28;20234;-57
2022/06/03 03:36:29;;;;;;;8.03;6.10;;;13.50;99.90;;;;;;5007946;28;20760;-55
2022/06/03 03:39:13;;;;;;;7.73;5.90;;;13.50;99.90;;;;;;5005343;28;20309;-55
2022/06/03 03:41:43;;;;;;;6.87;6.27;;;13.50;99.90;;;;;;5006607;28;20215;-56
2022/06/03 03:44:18;;;;;;;6.30;5.70;;;13.40;99.90;;;;;;5005609;28;20287;-56
2022/06/03 03:47:20;;;;;;;7.40;6.67;;;13.50;99.90;;;;;;5030413;28;20237;-55
2022/06/03 03:50:08;;;;;;;7.43;6.23;;;13.40;99.90;;;;;;5078163;28;20630;-55
2022/06/03 03:52:57;;;;;;;6.77;6.17;;;13.40;99.90;;;;;;5072614;28;20292;-55
2022/06/03 03:56:14;;;;;;;7.00;5.73;;;13.30;99.90;;;;;;5073875;28;20207;-55
2022/06/03 03:59:11;;;;;;;6.60;5.90;;;13.20;99.90;;;;;;5069707;28;20588;-56
2022/06/03 04:02:15;;;;;;;7.27;6.10;;;13.10;99.90;;;;;;5072652;28;20215;-55
2022/06/03 04:05:13;;;;;;;6.53;5.90;;;13.20;99.90;;;;;;5073859;28;20294;-55
2022/06/03 04:07:52;;;;;;;6.63;5.93;;;13.20;99.90;;;;;;5071868;28;20290;-55
2022/06/03 04:10:46;;;;;;;7.70;6.00;;;13.10;99.90;;;;;;5072122;28;20239;-55
2022/06/03 04:13:49;;;;;;;8.47;6.73;;;13.20;99.90;;;;;;5068395;28;20302;-54
2022/06/03 04:16:23;;;;;;;6.40;5.80;;;13.10;99.90;;;;;;5074208;28;20235;-54
2022/06/03 04:18:55;;;;;;;7.27;6.57;;;13.20;99.90;;;;;;5074421;28;20197;-57
2022/06/03 04:21:56;;;;;;;7.30;6.50;;;13.10;99.90;;;;;;5075016;28;20374;-56
2022/06/03 04:24:50;;;;;;;6.60;5.67;;;13.10;99.90;;;;;;5074144;28;20628;-55
2022/06/03 04:27:40;;;;;;;6.80;6.10;;;13.20;99.90;;;;;;5074456;28;20396;-58
2022/06/03 04:30:12;;;;;;;7.67;5.70;;;13.30;99.90;;;;;;5072166;28;20199;-56
2022/06/03 04:32:58;;;;;;;7.00;6.07;;;13.20;99.90;;;;;;5074289;28;22227;-56
2022/06/03 04:36:06;;;;;;;9.90;6.33;;;13.20;99.90;;;;;;5075491;28;20730;-56
2022/06/03 04:38:51;;;;;;;8.03;5.73;;;13.30;99.90;;;;;;5073948;28;20291;-55
2022/06/03 04:41:35;;;;;;;6.70;5.43;;;13.30;99.90;;;;;;5077278;28;20250;-55
2022/06/03 04:44:39;;;;;;;7.17;5.80;;;13.40;99.90;;;;;;5076203;28;20206;-55
2022/06/03 04:47:27;;;;;;;6.33;5.67;;;13.50;99.90;;;;;;5074944;28;20297;-55
2022/06/03 04:50:19;;;;;;;6.23;5.63;;;13.50;99.90;;;;;;5074253;28;20226;-54
2022/06/03 04:53:13;;;;;;;7.50;5.27;;;13.60;99.90;;;;;;5067922;28;20200;-54
2022/06/03 04:56:11;;;;;;;6.37;5.77;;;13.60;99.90;;;;;;5075651;28;20196;-56
2022/06/03 04:59:16;;;;;;;5.60;5.10;;;13.70;99.90;;;;;;5068815;28;20319;-56
2022/06/03 05:02:04;;;;;;;7.03;5.60;;;13.80;99.90;;;;;;5064301;28;20627;-55
2022/06/03 05:04:50;;;;;;;6.53;5.60;;;13.90;99.90;;;;;;5068612;28;20245;-55
2022/06/03 05:07:54;;;;;;;6.67;5.97;;;13.90;99.90;;;;;;5073909;28;20247;-56
2022/06/03 05:10:46;;;;;;;8.30;5.27;;;14.00;99.90;;;;;;5075242;28;20715;-55
2022/06/03 05:13:32;;;;;;;6.43;5.83;;;14.10;99.90;;;;;;5062636;28;20276;-56
2022/06/03 05:16:36;;;;;;;5.57;5.00;;;14.30;99.90;;;;;;5066894;28;20742;-57
2022/06/03 05:19:33;;;;;;;6.20;5.37;;;14.40;99.90;;;;;;5070529;28;20207;-56
2022/06/03 05:22:19;;;;;;;6.80;5.73;;;14.30;99.90;;;;;;5075453;28;20255;-56
2022/06/03 05:25:04;;;;;;;6.47;5.77;;;14.40;99.90;;;;;;5072419;28;20299;-55
2022/06/03 05:27:58;;;;;;;6.13;5.53;;;14.60;99.90;;;;;;5073601;28;20280;-55
2022/06/03 05:30:47;;;;;;;7.17;5.60;;;14.90;99.90;;;;;;5073150;28;20660;-55
2022/06/03 05:33:32;;;;;;;6.03;5.30;;;15.00;99.90;;;;;;5073331;28;20199;-54
2022/06/03 05:36:22;;;;;;;6.13;5.53;;;14.90;99.90;;;;;;5070688;28;20242;-55
2022/06/03 05:39:15;;;;;;;6.23;5.33;;;14.80;99.90;;;;;;5062696;28;20230;-55
2022/06/03 05:44:51;;;;;;;6.70;5.77;;;15.00;99.90;;;;;;5067359;28;20385;-55
2022/06/03 05:47:27;;;;;;;5.67;5.17;;;15.10;99.90;;;;;;5070422;28;20199;-55
2022/06/03 05:50:13;;;;;;;5.87;5.33;;;15.30;99.90;;;;;;5068805;28;20292;-54
2022/06/03 05:53:07;;;;;;;6.50;5.87;;;15.40;99.90;;;;;;5072536;28;20683;-55
2022/06/03 05:55:55;;;;;;;7.23;5.33;;;15.40;99.90;;;;;;5068827;28;20567;-55
2022/06/03 05:58:29;;;;;;;5.63;5.13;;;15.50;99.90;;;;;;5065920;28;20659;-54
2022/06/03 06:01:11;;;;;;;5.57;4.93;;;15.40;99.90;;;;;;5060859;28;20343;-55
2022/06/03 06:03:44;;;;;;;6.03;5.43;;;15.40;99.90;;;;;;5071755;28;20313;-54
2022/06/03 06:06:18;;;;;;;6.43;5.83;;;15.40;99.90;;;;;;5063794;28;20217;-54
2022/06/03 06:09:05;;;;;;;6.33;5.73;;;15.50;99.90;;;;;;5065424;28;20289;-55
2022/06/03 06:11:31;;;;;;;6.40;5.20;;;15.60;99.90;;;;;;5070003;28;20395;-55
2022/06/03 06:14:22;;;;;;;7.33;6.03;;;15.70;99.90;;;;;;5073437;28;20194;-55
2022/06/03 06:16:51;;;;;;;6.03;5.47;;;15.50;99.90;;;;;;5070369;28;20191;-54
2022/06/03 06:19:23;;;;;;;6.07;5.47;;;15.70;99.90;;;;;;5073033;28;20769;-55
2022/06/03 06:22:28;;;;;;;6.43;5.67;;;15.70;99.90;;;;;;5072249;28;20677;-55
2022/06/03 06:25:12;;;;;;;5.80;5.30;;;15.80;99.90;;;;;;5073092;28;20218;-55
2022/06/03 06:27:48;;;;;;;6.27;5.67;;;16.10;99.90;;;;;;5069008;28;20309;-55
2022/06/03 06:30:27;;;;;;;7.83;5.47;;;16.10;99.90;;;;;;5072400;28;20282;-54
2022/06/03 06:33:27;;;;;;;9.03;5.40;;;16.40;99.90;;;;;;5075769;28;20231;-54
2022/06/03 06:36:22;;;;;;;7.97;5.60;;;16.60;99.90;;;;;;5070376;28;20236;-54
2022/06/03 06:39:01;;;;;;;7.13;5.43;;;16.60;99.90;;;;;;5075169;28;20671;-55
2022/06/03 06:41:37;;;;;;;6.53;5.87;;;16.80;99.90;;;;;;5072717;28;20220;-55
2022/06/03 06:44:13;;;;;;;6.07;5.47;;;16.70;99.90;;;;;;5073398;28;20197;-55
2022/06/03 06:47:18;;;;;;;5.93;5.30;;;16.70;99.90;;;;;;5070216;28;20225;-55
2022/06/03 06:50:15;;;;;;;6.40;4.50;;;16.90;99.90;;;;;;5074373;28;20195;-55
2022/06/03 06:52:47;;;;;;;5.70;5.20;;;17.50;99.90;;;;;;5071234;28;20636;-55
2022/06/03 06:55:22;;;;;;;5.73;5.17;;;17.70;99.90;;;;;;5081053;28;20306;-55
2022/06/03 06:57:52;;;;;;;8.73;5.20;;;17.50;99.90;;;;;;5069799;28;20310;-55
2022/06/03 07:00:24;;;;;;;5.57;5.07;;;17.70;99.90;;;;;;5070147;28;20638;-55
2022/06/03 07:02:53;;;;;;;6.03;5.43;;;17.70;99.90;;;;;;5071396;28;20645;-56
2022/06/03 07:05:29;;;;;;;5.37;4.87;;;17.40;99.90;;;;;;5071992;28;20249;-55
2022/06/03 07:08:16;;;;;;;5.60;5.10;;;18.10;99.90;;;;;;5069763;28;20253;-55
2022/06/03 07:11:00;;;;;;;5.47;4.27;;;18.40;99.90;;;;;;5066452;28;20677;-55
2022/06/03 07:13:46;;;;;;;6.57;5.20;;;18.60;99.90;;;;;;5068981;28;20227;-55
2022/06/03 07:19:48;;;;;;;5.17;4.67;;;18.70;99.90;;;;;;5066358;28;20205;-55
2022/06/03 07:22:24;;;;;;;6.47;5.13;;;19.00;51.60;;;;;;5075280;28;20732;-54
2022/06/03 07:25:19;;;;;;;6.27;4.70;;;19.10;21.70;;;;;;5064655;28;20710;-55
2022/06/03 07:28:13;;;;;;;5.23;4.47;;;19.00;36.00;;;;;;5064518;28;20210;-56
2022/06/03 07:31:13;;;;;;;5.47;4.97;;;19.40;51.40;;;;;;5069819;28;20758;-55
2022/06/03 07:33:57;;;;;;;5.07;4.57;;;19.40;31.20;;;;;;5065405;28;20202;-55
2022/06/03 07:36:47;;;;;;;5.37;4.80;;;19.20;30.50;;;;;;5068581;28;20249;-56
2022/06/03 07:39:47;;;;;;;5.07;4.67;;;19.60;41.40;;;;;;5069669;28;20299;-55
2022/06/03 07:42:31;;;;;;;5.50;4.43;;;19.90;10.00;;;;;;5062171;28;20221;-55
2022/06/03 07:45:29;;;;;;;7.73;5.27;;;20.20;75.00;;;;;;5072072;28;20291;-55
2022/06/03 07:48:04;;;;;;;5.30;4.80;;;20.00;6.40;;;;;;5069020;28;20200;-55
2022/06/03 07:50:36;;;;;;;5.40;4.37;;;20.10;1.00;;;;;;5075013;28;20244;-55
2022/06/03 07:53:25;;;;;;;6.93;4.80;;;20.20;34.80;;;;;;5075824;28;20205;-56
2022/06/03 07:55:54;;;;;;;5.80;4.77;;;20.50;66.90;;;;;;5074803;28;20241;-55
2022/06/03 07:58:23;;;;;;;4.70;4.20;;;20.40;1.00;;;;;;5076669;28;20238;-55
2022/06/03 08:00:50;;;;;;;4.47;4.07;;;20.80;14.70;;;;;;5077986;28;20218;-55
2022/06/03 08:03:20;;;;;;;4.73;4.00;;;21.00;17.60;;;;;;5075855;28;20198;-55
2022/06/03 08:05:54;;;;;;;4.80;4.13;;;21.00;54.80;;;;;;5070097;28;20217;-56
2022/06/03 08:11:24;;;;;;;4.57;4.17;;;21.30;1.00;;;;;;5078648;28;20267;-55
2022/06/03 08:13:53;;;;;;;5.30;4.13;;;21.10;28.80;;;;;;5072266;28;20203;-55
2022/06/03 08:16:34;;;;;;;4.30;3.83;;;21.30;36.50;;;;;;5078003;28;20285;-55
2022/06/03 08:19:10;;;;;;;4.37;3.97;;;21.60;26.80;;;;;;5079374;28;20232;-55
2022/06/03 08:21:43;;;;;;;4.47;3.77;;;21.50;1.00;;;;;;5072736;28;22388;-55
2022/06/03 08:24:16;;;;;;;4.10;3.30;;;21.40;1.00;;;;;;5079294;28;20306;-55
2022/06/03 08:26:46;;;;;;;4.97;3.73;;;21.20;1.00;;;;;;5080870;28;20239;-56
2022/06/03 08:29:27;;;;;;;6.23;3.80;;;21.70;1.00;;;;;;5075589;28;20659;-56
2022/06/03 08:31:56;;;;;;;5.23;3.60;;;21.50;8.20;;;;;;5072481;28;20694;-56
2022/06/03 08:34:31;;;;;;;3.83;3.43;;;21.70;1.00;;;;;;5078756;28;20203;-56
2022/06/03 08:36:59;;;;;;;3.63;3.33;;;21.80;35.50;;;;;;5076329;28;20326;-55
2022/06/03 08:39:31;;;;;;;4.80;3.73;;;21.90;16.00;;;;;;5077023;28;20245;-55
2022/06/03 08:42:21;;;;;;;3.53;3.23;;;21.40;5.90;;;;;;5075633;28;20722;-55
2022/06/03 08:45:16;;;;;;;3.37;3.00;;;21.70;5.20;;;;;;5073000;28;20235;-55
2022/06/03 08:47:58;;;;;;;5.60;3.83;;;22.30;25.20;;;;;;5075439;28;20608;-55
2022/06/03 08:50:34;;;;;;;5.47;4.27;;;22.30;53.90;;;;;;5070831;28;20611;-55
2022/06/03 08:53:11;;;;;;;5.60;4.97;;;22.20;17.80;;;;;;5072101;28;20202;-56
2022/06/03 08:56:09;;;;;;;6.73;5.20;;;22.70;23.20;;;;;;5072860;28;20310;-55
2022/06/03 08:58:42;;;;;;;6.47;4.53;;;23.10;16.70;;;;;;5064508;28;20349;-55
2022/06/03 09:01:29;;;;;;;4.43;3.53;;;23.50;64.10;;;;;;5073918;28;20653;-56
2022/06/03 09:04:20;;;;;;;4.67;3.50;;;22.80;29.30;;;;;;5076977;28;20266;-55
2022/06/03 09:07:10;;;;;;;8.90;5.20;;;23.20;1.00;;;;;;5073178;28;20584;-55
2022/06/03 09:10:13;;;;;;;6.33;4.03;;;23.20;44.60;;;;;;5069203;28;20608;-56
2022/06/03 09:12:51;;;;;;;5.57;4.73;;;23.00;46.50;;;;;;5075963;28;20206;-56
2022/06/03 09:15:21;;;;;;;7.77;5.67;;;23.40;35.40;;;;;;5085094;28;20267;-58
2022/06/03 09:17:54;;;;;;;5.83;4.50;;;23.20;34.90;;;;;;5069598;28;20289;-56
2022/06/03 09:20:46;;;;;;;4.43;3.73;;;23.20;53.80;;;;;;5076846;28;20317;-56
2022/06/03 09:23:18;;;;;;;5.70;3.70;;;23.80;47.90;;;;;;5068590;28;20295;-58
2022/06/03 09:25:51;;;;;;;5.13;4.30;;;23.20;43.00;;;;;;5070996;28;20230;-56
2022/06/03 09:28:25;;;;;;;5.30;4.80;;;23.40;66.90;;;;;;5073292;28;20226;-56
2022/06/03 09:30:53;;;;;;;6.23;4.63;;;23.50;54.40;;;;;;5076543;28;20233;-55
2022/06/03 09:33:22;;;;;;;3.27;2.97;;;24.00;59.20;;;;;;5080205;28;20238;-55
2022/06/03 09:35:52;;;;;;;3.57;3.00;;;23.50;88.00;;;;;;5070359;28;20203;-55
2022/06/03 09:38:23;;;;;;;4.20;2.90;;;24.00;99.90;;;;;;5073019;28;20597;-55
2022/06/03 09:40:52;;;;;;;4.00;2.97;;;23.80;99.90;;;;;;5076418;28;20307;-57
2022/06/03 09:43:25;;;;;;;3.67;3.20;;;23.40;99.90;;;;;;5080052;28;20225;-55
2022/06/03 09:45:55;;;;;;;4.13;2.90;;;23.70;99.90;;;;;;5079109;28;20201;-58
2022/06/03 09:48:28;;;;;;;3.87;2.57;;;23.80;99.90;;;;;;5074357;28;20226;-56
2022/06/03 09:50:59;;;;;;;3.47;2.70;;;24.00;99.90;;;;;;5070305;28;20218;-56
2022/06/03 09:53:30;;;;;;;3.50;2.83;;;24.10;99.90;;;;;;5071234;28;20667;-55
2022/06/03 09:56:01;;;;;;;2.67;2.13;;;24.10;99.90;;;;;;5074656;28;20203;-56
2022/06/03 09:58:33;;;;;;;3.13;2.40;;;24.10;99.90;;;;;;5076329;28;20662;-55
2022/06/03 10:01:03;;;;;;;1.90;1.80;;;24.00;99.90;;;;;;5068527;28;20622;-55
2022/06/03 10:03:30;;;;;;;3.93;1.63;;;24.10;1.00;;;;;;5069389;28;20199;-55
2022/06/03 10:05:59;;;;;;;1.80;1.70;;;24.30;99.90;;;;;;5071551;28;20226;-56
2022/06/03 10:12:48;;;;;;;2.67;1.50;;;24.40;99.90;;;;;;5068981;28;20567;-56
2022/06/03 10:14:03;;;;;;;4.33;1.90;;;24.30;99.90;;;;;;5069405;28;20198;-55
2022/06/03 10:16:31;;;;;;;4.30;1.50;;;24.50;99.90;;;;;;5075435;28;20607;-56
2022/06/03 10:18:58;;;;;;;2.40;1.80;;;24.60;99.90;;;;;;5088911;28;20609;-55
2022/06/03 10:21:30;;;;;;;2.63;1.77;;;24.40;99.90;;;;;;5067813;28;20720;-61
2022/06/03 10:24:05;;;;;;;4.33;1.50;;;24.30;99.90;;;;;;5078234;28;20240;-57
2022/06/03 10:26:41;;;;;;;1.80;1.70;;;24.40;99.90;;;;;;5067675;28;20296;-57
2022/06/03 10:29:13;;;;;;;1.80;1.70;;;24.30;99.90;;;;;;5067932;28;20326;-57
2022/06/03 10:31:51;;;;;;;2.90;1.90;;;24.60;99.90;;;;;;5080412;28;20673;-57
2022/06/03 10:34:27;;;;;;;2.23;1.80;;;24.50;99.90;;;;;;5088783;28;20274;-55
2022/06/03 10:36:56;;;;;;;2.20;1.50;;;24.50;99.90;;;;;;5070124;28;20272;-55
2022/06/03 10:39:30;;;;;;;4.17;1.87;;;24.20;99.90;;;;;;5079640;28;20247;-56
2022/06/03 10:41:58;;;;;;;3.80;1.77;;;24.50;99.90;;;;;;5065631;28;20240;-56
2022/06/03 10:44:34;;;;;;;3.63;2.50;;;24.40;99.90;;;;;;5082273;28;20213;-56
2022/06/03 10:47:05;;;;;;;2.80;1.80;;;24.70;99.90;;;;;;5073917;28;20307;-57
2022/06/03 10:49:37;;;;;;;2.97;2.20;;;24.40;99.90;;;;;;5080416;28;20212;-56
2022/06/03 11:03:27;;;;;;;2.37;1.50;;;25.50;99.90;;;;;;5082791;28;20221;-56
2022/06/03 11:05:54;;;;;;;1.60;1.50;;;25.40;99.90;;;;;;5071322;28;20195;-55
2022/06/03 11:08:22;;;;;;;2.03;1.50;;;25.00;99.90;;;;;;5080193;28;20211;-57
2022/06/03 11:10:54;;;;;;;1.93;1.77;;;25.40;99.90;;;;;;5071609;28;20281;-56
2022/06/03 11:13:30;;;;;;;2.17;1.53;;;25.00;99.90;;;;;;5068125;28;20522;-55
2022/06/03 11:16:19;;;;;;;1.83;1.73;;;25.70;99.90;;;;;;5071329;28;20329;-56
2022/06/03 11:18:46;;;;;;;1.73;1.30;;;25.70;99.90;;;;;;5064995;28;20228;-57
2022/06/03 11:21:31;;;;;;;1.20;1.00;;;25.60;99.90;;;;;;5065813;28;20205;-56
2022/06/03 11:23:59;;;;;;;1.00;0.90;;;25.10;99.90;;;;;;5077361;28;20291;-56
2022/06/03 11:26:31;;;;;;;5.13;1.67;;;25.50;99.90;;;;;;5074078;28;20197;-56
2022/06/03 11:29:23;;;;;;;1.30;1.20;;;25.50;99.90;;;;;;5074319;28;20332;-56
2022/06/03 11:31:52;;;;;;;2.40;1.27;;;25.20;99.90;;;;;;5079696;28;20790;-55
2022/06/03 11:35:00;;;;;;;1.33;1.23;;;25.30;99.90;;;;;;5074081;28;20200;-56
2022/06/03 11:37:34;;;;;;;1.37;1.27;;;25.20;99.90;;;;;;5078342;28;20191;-58
2022/06/03 11:40:09;;;;;;;1.20;1.10;;;25.40;99.90;;;;;;5068961;28;20200;-57
2022/06/03 11:42:45;;;;;;;1.27;1.10;;;25.30;99.90;;;;;;5070315;28;20220;-57
2022/06/03 11:45:21;;;;;;;1.03;0.97;;;25.60;99.90;;;;;;5073319;28;20222;-56
2022/06/03 11:48:02;;;;;;;1.73;1.07;;;26.50;99.90;;;;;;5073576;28;20196;-57
2022/06/03 11:50:31;;;;;;;1.63;0.90;;;25.90;99.90;;;;;;5078803;28;20707;-57
2022/06/03 11:52:58;;;;;;;1.77;1.33;;;26.20;99.90;;;;;;5073664;28;20720;-58
2022/06/03 11:55:28;;;;;;;3.33;1.73;;;26.40;99.90;;;;;;5072469;28;21132;-56
2022/06/03 11:58:16;;;;;;;2.30;1.50;;;26.70;99.90;;;;;;5070397;28;20193;-57
2022/06/03 12:00:52;;;;;;;1.67;1.50;;;26.80;99.90;;;;;;5073814;28;20204;-56
2022/06/03 12:03:26;;;;;;;3.47;1.53;;;26.00;99.90;;;;;;5078922;28;20210;-56
2022/06/03 12:06:00;;;;;;;1.63;1.50;;;26.30;99.90;;;;;;5076755;28;20210;-56
2022/06/03 12:08:42;;;;;;;2.97;1.70;;;26.70;99.90;;;;;;5077160;28;20250;-56
2022/06/03 12:14:27;;;;;;;1.80;1.30;;;26.20;99.90;;;;;;5074754;28;20228;-56
2022/06/03 12:17:16;;;;;;;1.83;1.37;;;26.50;99.90;;;;;;5068155;28;20234;-57
2022/06/03 12:19:53;;;;;;;1.77;1.67;;;26.40;99.90;;;;;;5067231;28;20762;-56
2022/06/03 12:22:29;;;;;;;1.53;1.43;;;26.90;99.90;;;;;;5068217;28;20244;-56
2022/06/03 12:25:48;;;;;;;2.87;1.70;;;26.80;99.90;;;;;;5071173;28;20891;-56
2022/06/03 12:28:23;;;;;;;1.50;1.40;;;26.60;99.90;;;;;;5035689;28;20720;-56
2022/06/03 12:30:56;;;;;;;1.50;1.40;;;26.90;99.90;;;;;;5074369;28;20201;-57
2022/06/03 12:33:51;;;;;;;1.30;1.20;;;26.60;99.90;;;;;;5069597;28;20637;-56
2022/06/03 12:36:43;;;;;;;1.30;1.20;;;26.40;99.90;;;;;;5073445;28;20228;-56
2022/06/03 12:39:28;;;;;;;1.40;1.30;;;26.30;99.90;;;;;;5068207;28;20240;-56
2022/06/03 12:42:32;;;;;;;2.10;1.50;;;26.50;99.90;;;;;;5065935;28;20646;-58
2022/06/03 12:45:04;;;;;;;1.97;1.60;;;26.60;99.90;;;;;;5054171;28;20757;-57
2022/06/03 12:47:31;;;;;;;1.40;1.30;;;26.30;99.90;;;;;;5070869;28;20632;-57
2022/06/03 12:50:04;;;;;;;1.50;1.40;;;25.80;99.90;;;;;;5079318;28;20969;-56
2022/06/03 12:52:33;;;;;;;1.80;1.20;;;25.70;99.90;;;;;;5074644;28;20298;-57
2022/06/03 12:55:16;;;;;;;2.13;1.23;;;25.60;99.90;;;;;;5079874;28;20207;-57
2022/06/03 12:58:03;;;;;;;1.63;1.30;;;26.00;99.90;;;;;;5074826;28;20241;-57
2022/06/03 13:00:34;;;;;;;2.40;1.20;;;26.10;99.90;;;;;;5076891;28;20295;-56
2022/06/03 13:03:07;;;;;;;1.50;1.40;;;26.20;99.90;;;;;;5074537;28;20640;-56
2022/06/03 13:05:39;;;;;;;1.93;1.10;;;25.90;99.90;;;;;;5074660;28;20663;-56
2022/06/03 13:08:26;;;;;;;1.77;1.20;;;26.40;99.90;;;;;;5076799;28;20786;-55
2022/06/03 13:11:31;;;;;;;1.30;1.20;;;26.20;99.90;;;;;;5068238;28;20299;-57
2022/06/03 13:13:58;;;;;;;1.53;1.10;;;26.20;99.90;;;;;;5074809;28;20675;-58
2022/06/03 13:16:35;;;;;;;1.33;1.10;;;25.80;99.90;;;;;;5078124;28;20234;-56
2022/06/03 13:19:17;;;;;;;1.40;1.20;;;25.60;99.90;;;;;;5076155;28;20209;-56
2022/06/03 13:22:02;;;;;;;3.27;1.97;;;25.20;99.90;;;;;;5075378;28;20193;-56
2022/06/03 13:24:30;;;;;;;2.30;1.07;;;25.40;99.90;;;;;;5080260;28;20205;-56
2022/06/03 13:27:23;;;;;;;4.70;1.10;;;25.40;99.90;;;;;;5074496;28;20230;-57
2022/06/03 13:29:50;;;;;;;0.97;0.93;;;25.70;99.90;;;;;;5078387;28;20495;-57
2022/06/03 13:32:35;;;;;;;2.67;1.00;;;25.90;99.90;;;;;;5070244;28;20202;-56
2022/06/03 13:35:17;;;;;;;1.57;0.90;;;25.80;99.90;;;;;;5077740;28;20226;-56
2022/06/03 13:37:55;;;;;;;3.70;1.70;;;25.80;99.90;;;;;;5077668;28;20848;-56
2022/06/03 13:40:25;;;;;;;0.80;0.80;;;25.80;99.90;;;;;;5069893;28;20242;-56
2022/06/03 13:42:58;;;;;;;1.63;0.90;;;25.70;99.90;;;;;;5070524;28;20234;-56
2022/06/03 13:45:58;;;;;;;0.83;0.80;;;25.50;99.90;;;;;;5069717;28;20583;-56
2022/06/03 13:48:48;;;;;;;1.97;1.03;;;25.40;99.90;;;;;;5076131;28;20552;-56
2022/06/03 13:51:21;;;;;;;1.13;1.03;;;25.20;99.90;;;;;;5071239;28;20618;-58
2022/06/03 13:54:08;;;;;;;3.10;1.00;;;25.20;99.90;;;;;;5074877;28;20311;-57
2022/06/03 13:56:36;;;;;;;1.17;0.90;;;25.10;99.90;;;;;;5066484;28;20210;-56
2022/06/03 13:59:14;;;;;;;2.47;1.00;;;25.20;99.90;;;;;;5075880;28;20323;-56
2022/06/03 14:01:52;;;;;;;1.43;1.10;;;25.40;99.90;;;;;;5070004;28;20620;-57
2022/06/03 14:04:31;;;;;;;1.90;1.40;;;25.30;99.90;;;;;;5061429;28;20200;-57
2022/06/03 14:07:04;;;;;;;1.70;1.60;;;25.40;99.90;;;;;;5072258;28;20651;-57
2022/06/03 14:09:36;;;;;;;4.20;1.90;;;25.40;99.90;;;;;;5071977;28;20281;-56
2022/06/03 14:12:06;;;;;;;1.80;1.70;;;25.20;99.90;;;;;;5070255;28;20223;-56
2022/06/03 14:15:06;;;;;;;2.23;1.77;;;25.00;99.90;;;;;;5073414;28;20199;-56
2022/06/03 14:17:55;;;;;;;7.27;1.70;;;24.90;99.90;;;;;;5068629;28;20576;-56
2022/06/03 14:20:36;;;;;;;2.50;1.40;;;24.80;99.90;;;;;;5064445;28;20624;-56
2022/06/03 14:23:03;;;;;;;1.50;1.40;;;24.80;99.90;;;;;;5068071;28;21949;-56
2022/06/03 14:25:36;;;;;;;1.60;1.40;;;24.90;99.90;;;;;;5071627;28;20713;-57
2022/06/03 14:28:32;;;;;;;1.40;1.30;;;25.20;99.90;;;;;;5067257;28;20199;-56
2022/06/03 14:31:30;;;;;;;1.53;1.00;;;25.50;99.90;;;;;;5061984;28;20304;-56
2022/06/03 14:34:13;;;;;;;1.30;1.00;;;25.60;99.90;;;;;;5056062;28;20225;-56